Time;durP1;ratioP1;P1;durP2;ratioP2;P2;SDS_P1;SDS_P2;PMS_P1;PMS_P2;Temp;Humidity;BMP_temperature;BMP_pressure;BME280_temperature;BME280_humidity;BME280_pressure;Samples;Min_cycle;Max_cycle;Signal;HPM_P1;HPM_P2
2022/03/10 00:01:50;;;;;;;28.70;19.25;;;;;;;-0.55;93.95;102748.19;5051564;28;20378;-43
2022/03/10 00:04:15;;;;;;;32.45;19.45;;;;;;;-0.55;93.83;102739.41;5050301;28;20775;-42
2022/03/10 00:06:41;;;;;;;29.02;18.25;;;;;;;-0.49;93.78;102737.91;5051307;28;20179;-42
2022/03/10 00:09:06;;;;;;;27.30;18.30;;;;;;;-0.38;93.64;102734.78;5051281;28;20835;-44
2022/03/10 00:11:32;;;;;;;30.77;18.70;;;;;;;-0.42;93.24;102742.59;5051200;28;20160;-43
2022/03/10 00:13:57;;;;;;;30.30;18.77;;;;;;;-0.13;94.84;102745.41;5050941;28;20289;-43
2022/03/10 00:16:22;;;;;;;28.95;18.23;;;;;;;-0.05;95.40;102737.75;5049833;28;20224;-43
2022/03/10 00:18:48;;;;;;;29.27;19.25;;;;;;;0.06;95.45;102739.03;5051230;28;20537;-41
2022/03/10 00:21:14;;;;;;;28.45;18.00;;;;;;;-0.23;95.78;102724.81;5051146;28;20210;-42
2022/03/10 00:23:39;;;;;;;31.42;19.08;;;;;;;-0.18;96.07;102735.53;5050936;28;20187;-43
2022/03/10 00:26:05;;;;;;;31.00;19.10;;;;;;;-0.16;95.91;102737.38;5051046;28;20183;-43
2022/03/10 00:28:31;;;;;;;31.08;19.50;;;;;;;0.03;96.56;102732.78;5051179;28;20634;-44
2022/03/10 00:30:57;;;;;;;31.52;19.70;;;;;;;-0.01;96.53;102737.03;5049367;28;20186;-43
2022/03/10 00:33:22;;;;;;;27.60;17.80;;;;;;;0.02;96.11;102741.50;5050534;28;20852;-43
2022/03/10 00:35:48;;;;;;;29.45;19.23;;;;;;;-0.05;95.82;102740.41;5050928;28;20217;-42
2022/03/10 00:38:14;;;;;;;28.27;19.38;;;;;;;0.17;95.56;102748.22;5050278;28;20175;-42
2022/03/10 00:40:40;;;;;;;28.83;18.58;;;;;;;0.06;94.91;102748.69;5050678;28;20218;-44
2022/03/10 00:43:10;;;;;;;30.42;18.92;;;;;;;0.17;95.21;102758.75;5050207;28;20191;-42
2022/03/10 00:45:35;;;;;;;28.15;18.00;;;;;;;0.16;95.00;102764.00;5050370;28;20203;-42
2022/03/10 00:48:01;;;;;;;26.25;17.13;;;;;;;0.17;95.26;102747.34;5050928;28;20720;-43
2022/03/10 00:50:26;;;;;;;30.55;18.63;;;;;;;0.22;94.86;102755.41;5050556;28;20653;-42
2022/03/10 00:52:52;;;;;;;25.70;17.13;;;;;;;0.06;94.37;102757.50;5048903;28;20184;-45
2022/03/10 00:55:18;;;;;;;27.80;17.52;;;;;;;0.05;94.41;102742.53;5050824;28;20685;-41
2022/03/10 00:57:44;;;;;;;30.42;18.58;;;;;;;0.22;94.45;102752.75;5050301;28;20179;-43
2022/03/10 01:00:10;;;;;;;27.45;16.67;;;;;;;0.10;94.31;102750.59;5050338;28;20277;-43
2022/03/10 01:02:36;;;;;;;28.05;18.23;;;;;;;0.26;94.29;102758.19;5049116;28;20332;-42
2022/03/10 01:05:03;;;;;;;29.38;19.00;;;;;;;0.24;94.06;102765.19;5050432;28;20794;-44
2022/03/10 01:07:29;;;;;;;28.00;18.85;;;;;;;0.15;94.27;102760.47;5050587;28;20299;-42
2022/03/10 01:09:54;;;;;;;28.70;19.38;;;;;;;0.27;94.31;102760.00;5049049;28;20218;-44
2022/03/10 01:12:19;;;;;;;29.42;18.23;;;;;;;0.20;94.43;102763.28;5049971;28;20689;-44
2022/03/10 01:14:45;;;;;;;31.17;19.10;;;;;;;0.17;94.55;102752.59;5050119;28;20279;-43
2022/03/10 01:17:10;;;;;;;28.10;17.90;;;;;;;-0.05;94.25;102759.72;5049279;28;20172;-43
2022/03/10 01:19:36;;;;;;;29.02;19.10;;;;;;;-0.03;95.25;102760.69;5050386;28;20221;-43
2022/03/10 01:22:02;;;;;;;30.58;19.40;;;;;;;0.26;95.18;102754.66;5049530;28;20282;-44
2022/03/10 01:24:27;;;;;;;32.28;19.23;;;;;;;0.25;95.30;102753.78;5049773;28;20584;-45
2022/03/10 01:26:53;;;;;;;27.90;19.30;;;;;;;0.22;94.95;102750.13;5050443;28;20258;-42
2022/03/10 01:29:18;;;;;;;31.25;19.85;;;;;;;0.26;95.41;102759.94;5049736;28;20198;-43
2022/03/10 01:31:44;;;;;;;33.97;19.80;;;;;;;0.26;95.86;102763.47;5048869;28;20175;-44
2022/03/10 01:34:09;;;;;;;32.83;19.70;;;;;;;0.24;95.53;102757.28;5049816;28;20284;-44
2022/03/10 01:36:35;;;;;;;36.25;21.05;;;;;;;0.30;96.04;102762.72;5050071;28;20163;-41
2022/03/10 01:39:04;;;;;;;28.63;19.25;;;;;;;0.22;95.54;102761.59;5050127;28;20241;-42
2022/03/10 01:41:33;;;;;;;33.08;19.77;;;;;;;0.12;96.02;102762.97;5049630;28;20456;-45
2022/03/10 01:44:07;;;;;;;33.90;19.92;;;;;;;0.15;95.64;102759.56;5049789;28;20191;-43
2022/03/10 01:46:34;;;;;;;32.65;19.95;;;;;;;0.15;95.84;102759.56;5049754;28;20175;-43
2022/03/10 01:49:00;;;;;;;32.45;20.23;;;;;;;0.08;95.88;102754.91;5050024;28;20171;-44
2022/03/10 01:51:27;;;;;;;29.85;19.88;;;;;;;-0.21;96.31;102754.75;5049963;28;20183;-45
2022/03/10 01:53:53;;;;;;;31.90;20.08;;;;;;;-0.23;96.49;102748.53;5049392;28;20187;-45
2022/03/10 01:56:19;;;;;;;31.98;20.17;;;;;;;-0.24;96.65;102752.00;5049686;28;20623;-44
2022/03/10 01:58:47;;;;;;;32.25;20.77;;;;;;;-0.19;97.63;102744.28;5049880;28;20168;-44
2022/03/10 02:01:14;;;;;;;31.23;20.50;;;;;;;-0.10;97.43;102747.25;5049602;28;20580;-45
2022/03/10 02:03:40;;;;;;;37.45;22.20;;;;;;;-0.12;97.71;102741.03;5048142;28;20195;-42
2022/03/10 02:06:06;;;;;;;33.45;20.70;;;;;;;0.02;98.19;102746.78;5049356;28;20164;-44
2022/03/10 02:11:18;;;;;;;34.30;21.77;;;;;;;0.41;97.42;102752.56;5049355;28;20168;-44
2022/03/10 02:13:43;;;;;;;33.10;21.60;;;;;;;0.37;96.92;102761.22;5049589;28;20207;-43
2022/03/10 02:18:57;;;;;;;32.60;21.92;;;;;;;0.41;95.60;102753.44;5049298;28;20180;-45
2022/03/10 02:21:23;;;;;;;35.38;21.40;;;;;;;0.36;95.84;102765.59;5048118;28;20615;-45
2022/03/10 02:23:49;;;;;;;30.73;20.08;;;;;;;0.25;95.37;102756.41;5049223;28;20286;-43
2022/03/10 02:26:15;;;;;;;31.33;20.15;;;;;;;0.34;96.19;102762.00;5049585;28;20202;-44
2022/03/10 02:28:41;;;;;;;33.38;21.98;;;;;;;0.32;96.03;102755.78;5048536;28;20176;-45
2022/03/10 02:31:07;;;;;;;32.72;20.73;;;;;;;0.27;95.54;102769.66;5047181;28;20259;-48
2022/03/10 02:33:33;;;;;;;35.80;21.10;;;;;;;-0.02;96.14;102765.13;5048506;28;20282;-43
2022/03/10 02:35:59;;;;;;;36.08;22.23;;;;;;;0.05;96.37;102768.88;5053151;28;20265;-45
2022/03/10 02:38:24;;;;;;;32.80;21.00;;;;;;;-0.02;96.10;102766.88;5053191;28;20232;-44
2022/03/10 02:40:50;;;;;;;38.55;21.63;;;;;;;-0.03;96.27;102763.31;5053237;28;20274;-45
2022/03/10 02:43:17;;;;;;;33.13;21.42;;;;;;;-0.13;96.28;102763.84;5052318;28;20206;-44
2022/03/10 02:45:44;;;;;;;36.15;21.10;;;;;;;-0.19;96.94;102768.00;5053155;28;20179;-45
2022/03/10 02:48:09;;;;;;;35.55;22.38;;;;;;;-0.06;96.68;102768.50;5052805;28;20179;-45
2022/03/10 02:50:34;;;;;;;33.25;22.63;;;;;;;-0.11;96.86;102772.72;5052816;28;20171;-45
2022/03/10 02:53:00;;;;;;;34.75;21.95;;;;;;;-0.11;97.25;102770.06;5052148;28;20233;-45
2022/03/10 02:55:25;;;;;;;34.05;22.27;;;;;;;0.02;97.78;102774.03;5053126;28;20645;-44
2022/03/10 02:57:51;;;;;;;36.90;23.00;;;;;;;0.04;96.96;102771.47;5052960;28;20179;-44
2022/03/10 03:00:17;;;;;;;34.85;21.55;;;;;;;0.07;96.83;102769.84;5052385;28;20627;-44
2022/03/10 03:02:43;;;;;;;36.67;22.25;;;;;;;0.06;97.25;102775.94;5052639;28;20207;-42
2022/03/10 03:05:12;;;;;;;35.40;22.05;;;;;;;0.04;96.88;102782.88;5052707;28;20630;-45
2022/03/10 03:07:38;;;;;;;35.05;21.98;;;;;;;-0.08;96.96;102783.34;5052866;28;20195;-43
2022/03/10 03:10:05;;;;;;;39.13;22.15;;;;;;;-0.11;96.75;102784.97;5052856;28;20228;-44
2022/03/10 03:12:31;;;;;;;35.75;22.27;;;;;;;-0.11;96.90;102788.50;5052822;28;20243;-43
2022/03/10 03:14:57;;;;;;;31.05;19.88;;;;;;;-0.26;96.85;102798.47;5052613;28;20599;-41
2022/03/10 03:17:24;;;;;;;31.65;20.70;;;;;;;-0.24;96.76;102799.41;5052251;28;20210;-43
2022/03/10 03:19:51;;;;;;;34.17;21.73;;;;;;;-0.39;96.08;102802.38;5052496;28;20642;-42
2022/03/10 03:22:17;;;;;;;32.50;20.75;;;;;;;-0.36;96.85;102799.84;5052193;28;20202;-43
2022/03/10 03:24:44;;;;;;;38.83;22.40;;;;;;;-0.55;96.28;102795.59;5051944;28;20179;-44
2022/03/10 03:27:11;;;;;;;33.70;21.67;;;;;;;-0.72;96.49;102797.59;5051838;28;20164;-43
2022/03/10 03:29:36;;;;;;;34.70;21.27;;;;;;;-0.86;97.02;102801.38;5051937;28;20210;-44
2022/03/10 03:32:02;;;;;;;36.33;20.95;;;;;;;-0.91;97.11;102802.94;5052092;28;20186;-42
2022/03/10 03:34:27;;;;;;;35.42;22.73;;;;;;;-0.91;98.23;102797.69;5052038;28;20407;-42
2022/03/10 03:36:53;;;;;;;36.25;22.27;;;;;;;-0.90;98.62;102804.72;5051947;28;20224;-42
2022/03/10 03:39:18;;;;;;;38.38;23.38;;;;;;;-0.70;99.41;102798.53;5051917;28;20209;-44
2022/03/10 03:41:44;;;;;;;39.60;24.17;;;;;;;-0.71;99.09;102816.91;5051644;28;20580;-42
2022/03/10 03:44:10;;;;;;;38.35;22.95;;;;;;;-0.74;99.11;102812.41;5050238;28;20203;-43
2022/03/10 03:46:37;;;;;;;36.17;22.50;;;;;;;-0.71;99.07;102811.63;5051303;28;20232;-43
2022/03/10 03:49:02;;;;;;;36.88;23.85;;;;;;;-0.71;99.55;102809.88;5052057;28;20561;-43
2022/03/10 03:51:28;;;;;;;39.90;23.10;;;;;;;-0.70;99.00;102818.69;5051579;28;20156;-43
2022/03/10 03:53:53;;;;;;;42.58;24.60;;;;;;;-0.69;99.07;102818.75;5051420;28;20223;-43
2022/03/10 03:56:19;;;;;;;39.75;23.63;;;;;;;-0.58;100.00;102820.91;5052063;28;20193;-44
2022/03/10 03:58:45;;;;;;;40.72;24.40;;;;;;;-0.49;100.00;102819.53;5051129;28;20560;-43
2022/03/10 04:01:10;;;;;;;42.28;26.23;;;;;;;-0.49;100.00;102824.78;5051711;28;20263;-44
2022/03/10 04:03:36;;;;;;;43.83;24.55;;;;;;;-0.53;99.87;102812.34;5051370;28;20195;-42
2022/03/10 04:06:02;;;;;;;41.70;24.73;;;;;;;-0.55;100.00;102810.50;5051923;28;20212;-43
2022/03/10 04:08:27;;;;;;;45.90;25.65;;;;;;;-0.46;99.91;102811.78;5051513;28;20265;-45
2022/03/10 04:10:53;;;;;;;42.85;25.67;;;;;;;-0.42;100.00;102808.44;5050240;28;20167;-42
2022/03/10 04:13:21;;;;;;;38.38;23.65;;;;;;;-0.37;99.81;102802.41;5051288;28;20191;-44
2022/03/10 04:15:49;;;;;;;42.28;25.42;;;;;;;-0.26;100.00;102815.16;5052012;28;20179;-43
2022/03/10 04:18:15;;;;;;;41.00;24.52;;;;;;;-0.24;100.00;102812.56;5051061;28;20202;-44
2022/03/10 04:20:41;;;;;;;42.40;25.50;;;;;;;-0.19;99.85;102816.31;5051283;28;20643;-43
2022/03/10 04:23:06;;;;;;;42.50;25.05;;;;;;;-0.13;99.48;102810.34;5050474;28;20199;-46
2022/03/10 04:25:31;;;;;;;37.55;23.10;;;;;;;-0.05;99.11;102803.63;5051742;28;20646;-42
2022/03/10 04:27:57;;;;;;;42.63;25.55;;;;;;;-0.04;98.76;102800.19;5049481;28;20171;-42
2022/03/10 04:30:23;;;;;;;41.28;24.15;;;;;;;0.02;99.07;102795.09;5050857;28;20163;-43
2022/03/10 04:32:49;;;;;;;43.10;24.50;;;;;;;0.01;98.42;102797.72;5044808;28;20207;-44
2022/03/10 04:35:17;;;;;;;39.03;24.08;;;;;;;0.01;98.78;102800.34;5041761;28;20203;-45
2022/03/10 04:37:44;;;;;;;39.47;24.23;;;;;;;0.02;98.58;102804.75;5050864;28;20172;-44
2022/03/10 04:40:09;;;;;;;42.03;24.85;;;;;;;0.04;98.32;102803.97;5049632;28;20237;-43
2022/03/10 04:42:37;;;;;;;41.40;25.02;;;;;;;0.01;98.69;102814.41;5048300;28;20227;-44
2022/03/10 04:45:04;;;;;;;36.75;23.77;;;;;;;-0.04;97.65;102806.34;5051085;28;20182;-42
2022/03/10 04:47:29;;;;;;;39.80;23.90;;;;;;;0.03;97.87;102811.84;5050751;28;20623;-45
2022/03/10 04:49:56;;;;;;;37.80;23.75;;;;;;;-0.09;97.97;102799.09;5050828;28;20197;-44
2022/03/10 04:52:25;;;;;;;35.95;23.40;;;;;;;0.01;97.78;102808.25;5050803;28;20195;-42
2022/03/10 04:54:50;;;;;;;41.65;24.63;;;;;;;0.00;97.54;102802.09;5050368;28;20259;-42
2022/03/10 04:57:15;;;;;;;40.67;24.60;;;;;;;0.08;97.37;102819.06;5049725;28;20246;-44
2022/03/10 04:59:41;;;;;;;39.38;24.42;;;;;;;0.05;97.66;102816.31;5050381;28;20167;-42
2022/03/10 05:02:06;;;;;;;36.10;23.35;;;;;;;0.05;97.33;102810.16;5049964;28;20230;-42
2022/03/10 05:04:31;;;;;;;36.80;23.67;;;;;;;0.08;96.48;102819.06;5050378;28;20163;-42
2022/03/10 05:06:57;;;;;;;38.42;24.52;;;;;;;0.06;97.21;102812.84;5050063;28;20187;-42
2022/03/10 05:09:22;;;;;;;38.17;23.42;;;;;;;0.08;96.08;102810.25;5049955;28;20191;-43
2022/03/10 05:11:48;;;;;;;41.75;23.55;;;;;;;0.09;96.24;102807.69;5050028;28;20167;-44
2022/03/10 05:14:13;;;;;;;35.90;23.15;;;;;;;0.07;96.13;102804.09;5050210;28;20203;-42
2022/03/10 05:16:38;;;;;;;35.35;22.98;;;;;;;0.11;95.84;102810.34;5050667;28;20171;-43
2022/03/10 05:19:04;;;;;;;35.65;22.92;;;;;;;0.17;94.99;102800.03;5050100;28;20187;-45
2022/03/10 05:21:29;;;;;;;37.08;22.55;;;;;;;0.17;95.27;102803.56;5050110;28;20199;-44
2022/03/10 05:23:54;;;;;;;33.13;21.25;;;;;;;0.15;94.70;102801.72;5049644;28;20203;-46
2022/03/10 05:26:20;;;;;;;34.47;22.85;;;;;;;0.11;94.44;102797.19;5050215;28;20701;-44
2022/03/10 05:28:45;;;;;;;33.25;22.55;;;;;;;0.13;94.46;102806.03;5196514;22;20234;-42
2022/03/10 05:31:11;;;;;;;38.13;22.90;;;;;;;0.13;94.54;102808.69;5004332;28;20209;-47
2022/03/10 05:33:36;;;;;;;40.38;22.73;;;;;;;0.10;94.42;102809.47;5006011;28;20202;-51
2022/03/10 05:36:02;;;;;;;34.00;22.27;;;;;;;0.12;94.14;102812.19;4999196;28;20235;-44
2022/03/10 05:38:28;;;;;;;35.70;21.55;;;;;;;0.08;93.92;102810.25;4989813;28;20176;-46
2022/03/10 05:40:53;;;;;;;37.88;22.77;;;;;;;0.35;94.04;102808.63;4989629;28;20196;-45
2022/03/10 05:43:19;;;;;;;39.00;23.52;;;;;;;0.33;93.77;102823.50;5004244;28;20235;-51
2022/03/10 05:45:44;;;;;;;36.85;23.50;;;;;;;0.30;93.41;102810.19;4990024;28;20200;-44
2022/03/10 05:48:10;;;;;;;33.85;21.63;;;;;;;0.35;92.71;102827.09;4989778;28;20241;-45
2022/03/10 05:50:35;;;;;;;32.60;22.02;;;;;;;0.20;93.04;102822.16;4989829;28;20228;-52
2022/03/10 05:53:03;;;;;;;37.33;22.90;;;;;;;0.19;92.51;102819.44;4989329;28;20237;-47
2022/03/10 05:55:29;;;;;;;35.45;22.05;;;;;;;0.20;93.09;102826.53;4989199;28;20607;-45
2022/03/10 05:57:54;;;;;;;33.83;21.52;;;;;;;0.21;92.67;102815.13;4990059;28;20181;-48
2022/03/10 06:00:20;;;;;;;33.85;22.80;;;;;;;0.14;92.77;102823.66;4989643;28;20197;-50
2022/03/10 06:02:45;;;;;;;34.33;22.13;;;;;;;0.11;92.64;102819.19;4988952;28;20281;-44
2022/03/10 06:05:11;;;;;;;35.58;23.50;;;;;;;0.09;93.00;102828.78;4989728;28;20205;-44
2022/03/10 06:07:37;;;;;;;32.88;21.48;;;;;;;0.12;93.40;102835.91;4989852;28;20192;-52
2022/03/10 06:10:03;;;;;;;37.20;22.52;;;;;;;0.11;93.22;102837.63;4992634;28;20557;-47
2022/03/10 06:12:28;;;;;;;35.97;22.50;;;;;;;0.17;93.01;102832.56;4992939;28;20189;-47
2022/03/10 06:14:59;;;;;;;36.33;21.73;;;;;;;0.21;92.69;102838.88;4993552;28;20208;-48
2022/03/10 06:17:26;;;;;;;34.95;22.08;;;;;;;0.28;93.07;102835.59;4993618;28;20702;-46
2022/03/10 06:19:52;;;;;;;38.17;22.77;;;;;;;0.30;92.95;102831.28;4993276;28;20174;-47
2022/03/10 06:22:18;;;;;;;36.13;21.40;;;;;;;0.28;92.54;102840.88;4992773;28;20197;-44
2022/03/10 06:24:45;;;;;;;34.42;22.05;;;;;;;0.40;92.19;102835.16;4993294;28;20180;-44
2022/03/10 06:27:12;;;;;;;32.92;21.42;;;;;;;0.54;92.16;102848.84;4993491;28;20794;-46
2022/03/10 06:29:39;;;;;;;34.05;21.85;;;;;;;0.53;91.52;102836.50;4993449;28;20232;-47
2022/03/10 06:32:04;;;;;;;35.67;22.63;;;;;;;0.57;91.23;102844.56;5001130;28;20188;-45
2022/03/10 06:34:30;;;;;;;32.20;21.80;;;;;;;0.70;90.99;102843.28;5012683;28;20263;-45
2022/03/10 06:36:56;;;;;;;32.35;20.90;;;;;;;0.82;90.98;102840.16;5011247;28;20161;-48
2022/03/10 06:39:22;;;;;;;31.15;20.15;;;;;;;0.95;89.84;102838.81;5013038;28;20245;-45
2022/03/10 06:41:47;;;;;;;34.38;21.92;;;;;;;1.07;89.04;102846.25;5013070;28;20258;-44
2022/03/10 06:44:12;;;;;;;34.08;21.92;;;;;;;1.15;89.00;102837.72;5018009;23;20217;-45
2022/03/10 06:46:38;;;;;;;35.60;20.45;;;;;;;1.28;88.31;102846.97;5008167;28;20181;-44
2022/03/10 06:49:03;;;;;;;31.70;21.50;;;;;;;1.41;87.21;102858.81;5007776;28;20184;-43
2022/03/10 06:51:29;;;;;;;28.67;20.38;;;;;;;1.59;86.87;102847.94;5012100;28;20172;-43
2022/03/10 06:53:54;;;;;;;31.23;21.45;;;;;;;1.73;85.87;102858.91;5011943;28;20561;-44
2022/03/10 06:56:20;;;;;;;29.75;20.90;;;;;;;1.83;84.99;102853.97;5012270;28;20201;-42
2022/03/10 06:58:45;;;;;;;29.55;20.05;;;;;;;2.11;84.21;102857.44;5012807;28;20235;-41
2022/03/10 07:01:10;;;;;;;26.77;19.58;;;;;;;2.20;83.37;102852.41;5012295;28;20192;-42
2022/03/10 07:03:36;;;;;;;30.98;20.65;;;;;;;2.20;82.68;102851.53;5012083;28;20291;-44
2022/03/10 07:06:02;;;;;;;26.42;18.65;;;;;;;2.18;82.50;102856.75;5012766;28;20611;-43
2022/03/10 07:08:27;;;;;;;27.73;19.90;;;;;;;2.20;82.32;102852.41;5012478;28;20204;-44
2022/03/10 07:10:53;;;;;;;27.52;18.80;;;;;;;2.41;81.59;102861.84;5012623;28;20186;-43
2022/03/10 07:13:18;;;;;;;27.48;19.08;;;;;;;2.45;81.14;102855.78;5011392;28;20189;-43
2022/03/10 07:15:43;;;;;;;25.75;19.17;;;;;;;2.63;80.58;102860.69;5012534;28;20230;-44
2022/03/10 07:18:09;;;;;;;25.98;17.77;;;;;;;2.59;80.03;102864.09;5012292;28;20161;-42
2022/03/10 07:20:34;;;;;;;24.45;17.95;;;;;;;2.44;80.22;102872.50;5011019;28;20224;-44
2022/03/10 07:23:00;;;;;;;27.77;18.73;;;;;;;2.34;80.48;102874.00;5011754;28;20218;-45
2022/03/10 07:25:25;;;;;;;27.00;18.45;;;;;;;2.18;80.79;102872.63;5011687;28;20193;-42
2022/03/10 07:27:50;;;;;;;25.50;17.90;;;;;;;2.20;80.83;102880.63;5012251;28;20227;-44
2022/03/10 07:30:16;;;;;;;27.58;18.17;;;;;;;2.08;81.62;102881.16;5011863;28;20519;-43
2022/03/10 07:32:42;;;;;;;25.67;17.92;;;;;;;2.09;81.74;102884.69;4997522;28;20201;-41
2022/03/10 07:35:08;;;;;;;28.05;18.90;;;;;;;2.17;81.83;102876.13;4992431;28;20170;-44
2022/03/10 07:37:33;;;;;;;29.42;18.83;;;;;;;2.44;81.55;102885.72;4991945;28;20738;-44
2022/03/10 07:39:58;;;;;;;26.92;19.17;;;;;;;2.81;80.12;102871.75;5000688;28;20196;-43
2022/03/10 07:42:24;;;;;;;28.20;18.58;;;;;;;3.07;79.05;102874.19;5019505;28;20251;-43
2022/03/10 07:44:50;;;;;;;27.42;18.77;;;;;;;3.21;78.12;102866.59;5004373;28;20192;-44
2022/03/10 07:47:15;;;;;;;27.48;19.00;;;;;;;3.48;76.88;102874.34;5015668;28;20177;-44
2022/03/10 07:49:41;;;;;;;25.80;18.02;;;;;;;3.69;75.91;102873.91;5009689;28;20587;-41
2022/03/10 07:52:07;;;;;;;23.23;17.00;;;;;;;3.95;74.96;102874.50;5009441;28;20192;-42
2022/03/10 07:54:33;;;;;;;27.40;18.52;;;;;;;4.05;74.09;102867.66;5013555;28;20187;-41
2022/03/10 07:56:58;;;;;;;27.15;18.45;;;;;;;4.00;73.68;102864.00;5031323;28;20206;-43
2022/03/10 07:59:23;;;;;;;25.35;18.20;;;;;;;4.16;73.26;102871.44;5031339;28;20270;-43
2022/03/10 08:01:49;;;;;;;29.02;18.83;;;;;;;4.31;73.67;102863.78;5031491;28;20214;-43
2022/03/10 08:04:15;;;;;;;22.63;17.63;;;;;;;4.22;72.82;102874.22;5030752;28;20512;-46
2022/03/10 08:06:40;;;;;;;24.80;17.75;;;;;;;4.25;72.63;102868.97;5030868;28;20661;-43
2022/03/10 08:09:06;;;;;;;25.02;18.02;;;;;;;4.61;71.78;102865.25;5031128;28;20172;-42
2022/03/10 08:11:33;;;;;;;26.17;18.67;;;;;;;4.53;71.71;102870.44;5030923;28;20226;-45
2022/03/10 08:13:58;;;;;;;26.55;17.77;;;;;;;4.82;71.10;102866.53;5030504;28;20206;-44
2022/03/10 08:16:24;;;;;;;27.00;18.50;;;;;;;4.54;71.08;102874.84;5030913;28;20298;-43
2022/03/10 08:18:49;;;;;;;25.10;18.00;;;;;;;4.82;70.91;102869.19;5030850;28;20168;-47
2022/03/10 08:21:15;;;;;;;23.63;17.05;;;;;;;4.94;70.12;102859.69;5030890;28;20204;-48
2022/03/10 08:23:41;;;;;;;26.98;17.55;;;;;;;4.98;70.21;102857.97;5030390;28;20220;-45
2022/03/10 08:26:08;;;;;;;24.55;17.17;;;;;;;5.02;69.83;102872.22;5030779;28;20836;-43
2022/03/10 08:28:34;;;;;;;24.00;18.13;;;;;;;5.12;69.86;102867.09;5013004;28;20642;-47
2022/03/10 08:31:02;;;;;;;23.83;17.08;;;;;;;5.27;69.02;102862.88;5029269;28;20211;-46
2022/03/10 08:33:28;;;;;;;22.52;16.75;;;;;;;5.39;68.26;102867.53;4990201;28;20715;-48
2022/03/10 08:35:53;;;;;;;21.30;16.92;;;;;;;5.45;68.17;102867.63;4991176;28;20176;-43
2022/03/10 08:38:19;;;;;;;22.08;16.85;;;;;;;5.84;67.69;102866.41;4991012;28;20260;-44
2022/03/10 08:40:44;;;;;;;22.67;16.95;;;;;;;5.67;66.74;102866.19;4991030;28;20185;-46
2022/03/10 08:43:12;;;;;;;21.30;15.63;;;;;;;5.80;66.63;102862.81;4990380;28;20205;-49
2022/03/10 08:45:38;;;;;;;22.15;16.40;;;;;;;5.78;65.68;102869.88;4990895;28;20215;-43
2022/03/10 08:48:05;;;;;;;23.25;16.67;;;;;;;5.73;66.09;102859.19;4990880;28;20592;-48
2022/03/10 08:50:30;;;;;;;21.88;15.80;;;;;;;6.08;65.62;102861.47;4990704;28;20635;-46
2022/03/10 08:52:56;;;;;;;21.13;16.05;;;;;;;5.98;64.87;102855.13;4990279;28;20200;-42
2022/03/10 08:55:22;;;;;;;21.88;16.75;;;;;;;6.03;64.13;102865.81;4990705;28;20173;-44
2022/03/10 08:57:48;;;;;;;23.05;16.00;;;;;;;6.08;64.54;102848.16;4991340;28;20530;-43
2022/03/10 09:00:14;;;;;;;20.40;16.02;;;;;;;5.95;64.96;102849.78;4991135;28;20197;-45
2022/03/10 09:02:42;;;;;;;21.65;16.15;;;;;;;5.90;64.55;102847.88;4990481;28;20205;-45
2022/03/10 09:05:08;;;;;;;22.83;16.38;;;;;;;6.19;64.53;102846.53;4991088;28;20552;-44
2022/03/10 09:07:35;;;;;;;25.65;16.15;;;;;;;6.41;64.12;102838.81;4991040;28;20181;-43
2022/03/10 09:10:01;;;;;;;24.13;16.20;;;;;;;6.49;64.03;102845.09;4991072;28;20200;-43
2022/03/10 09:12:27;;;;;;;20.13;15.18;;;;;;;6.66;64.04;102831.97;4990767;28;20189;-43
2022/03/10 09:14:53;;;;;;;20.92;15.20;;;;;;;6.91;63.38;102826.84;4991588;28;20654;-43
2022/03/10 09:17:19;;;;;;;24.33;16.13;;;;;;;7.18;62.58;102827.09;4990741;28;20272;-42
2022/03/10 09:19:45;;;;;;;23.40;16.35;;;;;;;7.05;62.30;102827.00;4991014;28;20175;-41
2022/03/10 09:22:10;;;;;;;18.98;14.80;;;;;;;6.88;61.52;102834.84;4990943;28;20300;-42
2022/03/10 09:24:36;;;;;;;18.67;14.98;;;;;;;7.20;61.56;102822.69;4990848;28;20178;-41
2022/03/10 09:27:01;;;;;;;20.88;14.68;;;;;;;7.30;61.04;102818.28;4990833;28;20174;-41
2022/03/10 09:29:27;;;;;;;19.75;14.75;;;;;;;7.60;60.82;102827.41;4990930;28;20208;-40
2022/03/10 09:31:52;;;;;;;18.60;14.75;;;;;;;7.48;60.23;102822.91;4990364;28;20264;-40
2022/03/10 09:34:18;;;;;;;19.90;15.23;;;;;;;7.38;59.66;102829.03;5009804;28;20200;-41
2022/03/10 09:36:43;;;;;;;20.00;14.40;;;;;;;7.34;59.55;102837.88;5017555;28;20264;-41
2022/03/10 09:39:09;;;;;;;20.88;14.95;;;;;;;7.47;58.94;102830.88;5015086;28;20183;-41
2022/03/10 09:41:37;;;;;;;21.70;15.05;;;;;;;7.66;59.18;102834.56;5019445;28;20181;-42
2022/03/10 09:44:12;;;;;;;21.08;14.77;;;;;;;7.69;58.50;102835.47;5012287;28;20224;-39
2022/03/10 09:46:37;;;;;;;20.08;15.30;;;;;;;7.90;58.25;102826.69;5020617;28;20238;-41
2022/03/10 09:49:03;;;;;;;19.95;15.75;;;;;;;7.90;58.26;102829.34;5008958;28;20181;-41
2022/03/10 09:51:29;;;;;;;19.73;15.15;;;;;;;8.13;58.49;102823.22;5017257;28;20197;-41
2022/03/10 09:53:54;;;;;;;20.17;14.85;;;;;;;8.24;58.60;102829.47;5017294;28;20559;-42
2022/03/10 09:56:20;;;;;;;19.33;14.77;;;;;;;8.52;57.57;102830.50;5010184;28;20157;-41
2022/03/10 09:58:46;;;;;;;23.27;16.00;;;;;;;8.44;56.99;102834.97;5009997;28;20188;-42
2022/03/10 10:01:11;;;;;;;19.00;15.77;;;;;;;8.20;57.55;102839.28;5009843;28;20572;-42
2022/03/10 10:03:37;;;;;;;19.50;15.40;;;;;;;8.44;57.41;102826.94;5008221;28;20209;-42
2022/03/10 10:06:03;;;;;;;19.17;14.70;;;;;;;8.72;56.93;102827.88;5010088;28;20173;-41
2022/03/10 10:08:31;;;;;;;20.65;14.75;;;;;;;8.52;56.59;102833.19;5010030;28;20785;-42
2022/03/10 10:10:56;;;;;;;22.55;14.43;;;;;;;8.44;57.17;102838.50;5009537;28;20213;-42
2022/03/10 10:13:29;;;;;;;17.73;14.57;;;;;;;8.65;57.12;102824.28;5009345;28;20361;-42
2022/03/10 10:16:01;;;;;;;20.13;15.25;;;;;;;8.97;56.27;102825.25;4997820;28;20583;-41
2022/03/10 10:20:54;;;;;;;19.60;14.77;;;;;;;8.90;55.24;102836.78;5006184;28;20228;-41
2022/03/10 10:23:26;;;;;;;22.25;15.25;;;;;;;8.94;56.00;102828.78;5008309;28;20212;-42
2022/03/10 10:25:56;;;;;;;20.70;14.55;;;;;;;8.57;55.15;102827.84;5009559;28;20513;-42
2022/03/10 10:28:44;;;;;;;22.77;14.80;;;;;;;8.78;55.00;102829.66;5009197;28;20262;-41
2022/03/10 10:31:13;;;;;;;22.30;14.73;;;;;;;8.93;54.92;102829.69;5008309;28;20200;-43
2022/03/10 10:33:41;;;;;;;19.73;15.05;;;;;;;9.20;54.93;102826.09;5008145;28;20197;-42
2022/03/10 10:36:26;;;;;;;20.67;15.13;;;;;;;8.85;54.50;102824.34;5007805;28;20169;-40
2022/03/10 10:39:09;;;;;;;19.30;15.02;;;;;;;9.06;54.41;102827.91;5009521;28;20188;-43
2022/03/10 10:41:36;;;;;;;19.00;14.45;;;;;;;9.24;54.65;102824.34;5008921;28;20200;-39
2022/03/10 10:44:05;;;;;;;19.13;13.77;;;;;;;8.97;53.99;102830.59;5008113;28;20208;-43
2022/03/10 10:46:38;;;;;;;20.08;14.25;;;;;;;8.87;54.07;102827.88;5009352;28;20173;-42
2022/03/10 10:49:12;;;;;;;19.05;13.75;;;;;;;9.25;54.72;102818.13;5007874;28;20189;-44
2022/03/10 10:51:41;;;;;;;16.38;13.98;;;;;;;9.51;54.37;102831.47;5009669;28;20291;-41
2022/03/10 10:54:09;;;;;;;19.10;13.82;;;;;;;9.22;54.43;102826.13;5009055;28;20197;-41
2022/03/10 10:56:44;;;;;;;19.80;13.70;;;;;;;9.39;54.95;102816.28;5011504;28;20353;-40
2022/03/10 10:59:28;;;;;;;17.90;13.70;;;;;;;9.34;55.74;102811.88;5012639;28;20172;-41
2022/03/10 11:02:10;;;;;;;15.77;12.35;;;;;;;9.62;54.52;102801.97;5012684;28;20188;-39
2022/03/10 11:04:37;;;;;;;17.10;12.70;;;;;;;9.82;53.61;102810.84;5011434;28;20169;-41
2022/03/10 11:07:03;;;;;;;17.75;11.70;;;;;;;9.62;51.37;102805.56;5012404;28;20192;-42
2022/03/10 11:09:32;;;;;;;18.88;12.88;;;;;;;9.69;51.61;102812.69;5012704;28;20253;-42
2022/03/10 11:11:58;;;;;;;17.20;13.43;;;;;;;9.97;51.41;102800.97;5012179;28;20161;-43
2022/03/10 11:14:24;;;;;;;18.67;12.77;;;;;;;9.84;51.57;102816.22;5012325;28;20606;-40
2022/03/10 11:16:50;;;;;;;16.98;12.25;;;;;;;9.96;51.36;102813.47;5011347;28;20173;-42
2022/03/10 11:19:25;;;;;;;16.73;12.10;;;;;;;9.61;50.60;102816.25;5012038;28;20536;-39